sensor_id;sensor_type;location;lat;lon;timestamp;P1;durP1;ratioP1;P2;durP2;ratioP2
3991;SDS011;2010;48.194;16.394;2023-04-25T00:00:20;1.87;;;1.77;;
3991;SDS011;2010;48.194;16.394;2023-04-25T00:02:53;2.10;;;2.00;;
3991;SDS011;2010;48.194;16.394;2023-04-25T00:05:28;2.03;;;1.93;;
3991;SDS011;2010;48.194;16.394;2023-04-25T00:07:57;3.57;;;2.00;;
3991;SDS011;2010;48.194;16.394;2023-04-25T00:10:31;2.00;;;1.60;;
3991;SDS011;2010;48.194;16.394;2023-04-25T00:13:02;2.10;;;1.90;;
3991;SDS011;2010;48.194;16.394;2023-04-25T00:15:37;2.10;;;2.00;;
3991;SDS011;2010;48.194;16.394;2023-04-25T00:18:09;2.63;;;1.77;;
3991;SDS011;2010;48.194;16.394;2023-04-25T00:20:52;2.27;;;2.03;;
3991;SDS011;2010;48.194;16.394;2023-04-25T00:23:21;1.90;;;1.80;;
3991;SDS011;2010;48.194;16.394;2023-04-25T00:25:52;2.60;;;2.10;;
3991;SDS011;2010;48.194;16.394;2023-04-25T00:28:21;1.90;;;1.80;;
3991;SDS011;2010;48.194;16.394;2023-04-25T00:30:52;1.90;;;1.80;;
3991;SDS011;2010;48.194;16.394;2023-04-25T00:33:21;2.67;;;2.47;;
3991;SDS011;2010;48.194;16.394;2023-04-25T00:35:55;1.80;;;1.70;;
3991;SDS011;2010;48.194;16.394;2023-04-25T00:38:27;3.23;;;2.40;;
3991;SDS011;2010;48.194;16.394;2023-04-25T00:40:57;2.87;;;2.57;;
3991;SDS011;2010;48.194;16.394;2023-04-25T00:43:33;4.10;;;2.43;;
3991;SDS011;2010;48.194;16.394;2023-04-25T00:46:10;2.67;;;2.47;;
3991;SDS011;2010;48.194;16.394;2023-04-25T00:48:41;4.03;;;2.10;;
3991;SDS011;2010;48.194;16.394;2023-04-25T00:51:13;2.57;;;2.37;;
3991;SDS011;2010;48.194;16.394;2023-04-25T00:53:43;2.60;;;2.30;;
3991;SDS011;2010;48.194;16.394;2023-04-25T00:56:16;2.43;;;2.20;;
3991;SDS011;2010;48.194;16.394;2023-04-25T00:58:49;2.20;;;2.10;;
3991;SDS011;2010;48.194;16.394;2023-04-25T01:01:24;2.77;;;2.57;;
3991;SDS011;2010;48.194;16.394;2023-04-25T01:04:11;4.53;;;2.40;;
3991;SDS011;2010;48.194;16.394;2023-04-25T01:06:52;3.80;;;2.40;;
3991;SDS011;2010;48.194;16.394;2023-04-25T01:09:25;2.57;;;2.37;;
3991;SDS011;2010;48.194;16.394;2023-04-25T01:11:58;2.60;;;2.40;;
3991;SDS011;2010;48.194;16.394;2023-04-25T01:14:29;2.50;;;2.40;;
3991;SDS011;2010;48.194;16.394;2023-04-25T01:17:02;2.77;;;1.87;;
3991;SDS011;2010;48.194;16.394;2023-04-25T01:19:36;2.53;;;2.33;;
3991;SDS011;2010;48.194;16.394;2023-04-25T01:22:17;3.40;;;3.10;;
3991;SDS011;2010;48.194;16.394;2023-04-25T01:24:52;3.10;;;2.80;;
3991;SDS011;2010;48.194;16.394;2023-04-25T01:27:21;2.67;;;2.47;;
3991;SDS011;2010;48.194;16.394;2023-04-25T01:29:53;3.13;;;2.80;;
3991;SDS011;2010;48.194;16.394;2023-04-25T01:32:24;2.57;;;1.87;;
3991;SDS011;2010;48.194;16.394;2023-04-25T01:34:55;2.23;;;2.13;;
3991;SDS011;2010;48.194;16.394;2023-04-25T01:37:27;2.37;;;2.17;;
3991;SDS011;2010;48.194;16.394;2023-04-25T01:40:00;2.60;;;2.50;;
3991;SDS011;2010;48.194;16.394;2023-04-25T01:42:33;4.00;;;2.80;;
3991;SDS011;2010;48.194;16.394;2023-04-25T01:45:14;2.50;;;2.30;;
3991;SDS011;2010;48.194;16.394;2023-04-25T01:47:45;2.33;;;2.13;;
3991;SDS011;2010;48.194;16.394;2023-04-25T01:50:17;3.10;;;2.90;;
3991;SDS011;2010;48.194;16.394;2023-04-25T01:52:52;3.53;;;2.83;;
3991;SDS011;2010;48.194;16.394;2023-04-25T01:55:22;2.60;;;2.40;;
3991;SDS011;2010;48.194;16.394;2023-04-25T01:58:09;2.50;;;2.27;;
3991;SDS011;2010;48.194;16.394;2023-04-25T02:01:02;2.60;;;2.40;;
3991;SDS011;2010;48.194;16.394;2023-04-25T02:03:44;3.03;;;2.73;;
3991;SDS011;2010;48.194;16.394;2023-04-25T02:06:34;2.70;;;2.50;;
3991;SDS011;2010;48.194;16.394;2023-04-25T02:09:12;2.50;;;2.40;;
3991;SDS011;2010;48.194;16.394;2023-04-25T02:11:53;3.87;;;2.70;;
3991;SDS011;2010;48.194;16.394;2023-04-25T02:14:27;2.50;;;2.30;;
3991;SDS011;2010;48.194;16.394;2023-04-25T02:17:31;2.60;;;2.50;;
3991;SDS011;2010;48.194;16.394;2023-04-25T02:20:01;3.17;;;2.97;;
3991;SDS011;2010;48.194;16.394;2023-04-25T02:22:34;3.87;;;3.00;;
3991;SDS011;2010;48.194;16.394;2023-04-25T02:25:12;2.70;;;2.40;;
3991;SDS011;2010;48.194;16.394;2023-04-25T02:27:44;2.63;;;2.43;;
3991;SDS011;2010;48.194;16.394;2023-04-25T02:30:15;4.00;;;2.83;;
3991;SDS011;2010;48.194;16.394;2023-04-25T02:32:57;2.90;;;2.80;;
3991;SDS011;2010;48.194;16.394;2023-04-25T02:35:37;3.40;;;3.00;;
3991;SDS011;2010;48.194;16.394;2023-04-25T02:38:10;4.00;;;2.70;;
3991;SDS011;2010;48.194;16.394;2023-04-25T02:40:45;5.80;;;2.80;;
3991;SDS011;2010;48.194;16.394;2023-04-25T02:43:14;3.83;;;2.80;;
3991;SDS011;2010;48.194;16.394;2023-04-25T02:46:03;3.30;;;3.10;;
3991;SDS011;2010;48.194;16.394;2023-04-25T02:48:33;3.93;;;3.00;;
3991;SDS011;2010;48.194;16.394;2023-04-25T02:51:02;4.00;;;3.27;;
3991;SDS011;2010;48.194;16.394;2023-04-25T02:53:34;3.90;;;3.37;;
3991;SDS011;2010;48.194;16.394;2023-04-25T02:56:05;3.70;;;2.77;;
3991;SDS011;2010;48.194;16.394;2023-04-25T02:58:35;2.87;;;2.67;;
3991;SDS011;2010;48.194;16.394;2023-04-25T03:01:12;2.77;;;2.60;;
3991;SDS011;2010;48.194;16.394;2023-04-25T03:03:42;3.40;;;3.10;;
3991;SDS011;2010;48.194;16.394;2023-04-25T03:06:20;3.63;;;3.43;;
3991;SDS011;2010;48.194;16.394;2023-04-25T03:08:49;4.23;;;3.30;;
3991;SDS011;2010;48.194;16.394;2023-04-25T03:11:28;7.60;;;3.53;;
3991;SDS011;2010;48.194;16.394;2023-04-25T03:13:58;3.10;;;2.90;;
3991;SDS011;2010;48.194;16.394;2023-04-25T03:16:29;3.70;;;3.40;;
3991;SDS011;2010;48.194;16.394;2023-04-25T03:18:59;2.93;;;2.73;;
3991;SDS011;2010;48.194;16.394;2023-04-25T03:21:29;3.60;;;3.30;;
3991;SDS011;2010;48.194;16.394;2023-04-25T03:23:59;3.50;;;3.20;;
3991;SDS011;2010;48.194;16.394;2023-04-25T03:26:33;4.00;;;3.60;;
3991;SDS011;2010;48.194;16.394;2023-04-25T03:29:09;3.10;;;2.90;;
3991;SDS011;2010;48.194;16.394;2023-04-25T03:31:41;6.10;;;2.97;;
3991;SDS011;2010;48.194;16.394;2023-04-25T03:34:15;3.17;;;2.97;;
3991;SDS011;2010;48.194;16.394;2023-04-25T03:36:50;3.57;;;3.03;;
3991;SDS011;2010;48.194;16.394;2023-04-25T03:39:31;4.37;;;3.20;;
3991;SDS011;2010;48.194;16.394;2023-04-25T03:42:07;3.40;;;3.10;;
3991;SDS011;2010;48.194;16.394;2023-04-25T03:44:38;2.97;;;2.77;;
3991;SDS011;2010;48.194;16.394;2023-04-25T03:47:14;5.30;;;3.50;;
3991;SDS011;2010;48.194;16.394;2023-04-25T03:49:51;3.00;;;2.70;;
3991;SDS011;2010;48.194;16.394;2023-04-25T03:52:22;3.47;;;3.17;;
3991;SDS011;2010;48.194;16.394;2023-04-25T03:54:52;3.50;;;3.20;;
3991;SDS011;2010;48.194;16.394;2023-04-25T03:57:26;4.57;;;3.10;;
3991;SDS011;2010;48.194;16.394;2023-04-25T03:59:59;3.50;;;3.10;;
3991;SDS011;2010;48.194;16.394;2023-04-25T04:02:53;3.30;;;2.93;;
3991;SDS011;2010;48.194;16.394;2023-04-25T04:05:25;4.43;;;3.20;;
3991;SDS011;2010;48.194;16.394;2023-04-25T04:08:03;4.50;;;3.73;;
3991;SDS011;2010;48.194;16.394;2023-04-25T04:10:39;3.70;;;3.40;;
3991;SDS011;2010;48.194;16.394;2023-04-25T04:13:26;3.63;;;3.33;;
3991;SDS011;2010;48.194;16.394;2023-04-25T04:15:55;3.17;;;2.97;;
3991;SDS011;2010;48.194;16.394;2023-04-25T04:18:29;3.70;;;3.00;;
3991;SDS011;2010;48.194;16.394;2023-04-25T04:20:59;4.60;;;3.50;;
3991;SDS011;2010;48.194;16.394;2023-04-25T04:23:31;4.80;;;3.37;;
3991;SDS011;2010;48.194;16.394;2023-04-25T04:26:11;4.10;;;3.33;;
3991;SDS011;2010;48.194;16.394;2023-04-25T04:29:00;3.10;;;2.90;;
3991;SDS011;2010;48.194;16.394;2023-04-25T04:31:50;4.70;;;3.40;;
3991;SDS011;2010;48.194;16.394;2023-04-25T04:34:33;4.70;;;3.37;;
3991;SDS011;2010;48.194;16.394;2023-04-25T04:37:16;5.30;;;3.37;;
3991;SDS011;2010;48.194;16.394;2023-04-25T04:39:58;3.63;;;3.37;;
3991;SDS011;2010;48.194;16.394;2023-04-25T04:42:51;3.97;;;3.60;;
3991;SDS011;2010;48.194;16.394;2023-04-25T04:46:03;4.30;;;3.87;;
3991;SDS011;2010;48.194;16.394;2023-04-25T04:48:54;4.93;;;3.90;;
3991;SDS011;2010;48.194;16.394;2023-04-25T04:51:43;4.60;;;3.60;;
3991;SDS011;2010;48.194;16.394;2023-04-25T04:54:33;3.63;;;3.33;;
3991;SDS011;2010;48.194;16.394;2023-04-25T04:57:24;6.33;;;3.30;;
3991;SDS011;2010;48.194;16.394;2023-04-25T05:00:19;3.73;;;3.40;;
3991;SDS011;2010;48.194;16.394;2023-04-25T05:03:13;5.00;;;3.40;;
3991;SDS011;2010;48.194;16.394;2023-04-25T05:06:04;3.53;;;3.27;;
3991;SDS011;2010;48.194;16.394;2023-04-25T05:08:53;4.60;;;3.30;;
3991;SDS011;2010;48.194;16.394;2023-04-25T05:11:48;4.00;;;3.60;;
3991;SDS011;2010;48.194;16.394;2023-04-25T05:14:49;4.23;;;3.83;;
3991;SDS011;2010;48.194;16.394;2023-04-25T05:17:36;5.23;;;4.33;;
3991;SDS011;2010;48.194;16.394;2023-04-25T05:20:41;3.60;;;3.30;;
3991;SDS011;2010;48.194;16.394;2023-04-25T05:23:26;4.70;;;4.30;;
3991;SDS011;2010;48.194;16.394;2023-04-25T05:26:34;4.47;;;4.07;;
3991;SDS011;2010;48.194;16.394;2023-04-25T05:29:19;3.93;;;3.67;;
3991;SDS011;2010;48.194;16.394;2023-04-25T05:32:24;7.20;;;4.17;;
3991;SDS011;2010;48.194;16.394;2023-04-25T05:34:55;3.83;;;3.53;;
3991;SDS011;2010;48.194;16.394;2023-04-25T05:37:33;4.30;;;3.93;;
3991;SDS011;2010;48.194;16.394;2023-04-25T05:40:12;6.23;;;4.23;;
3991;SDS011;2010;48.194;16.394;2023-04-25T05:42:48;4.43;;;4.03;;
3991;SDS011;2010;48.194;16.394;2023-04-25T05:45:38;7.23;;;4.53;;
3991;SDS011;2010;48.194;16.394;2023-04-25T05:48:28;4.30;;;3.90;;
3991;SDS011;2010;48.194;16.394;2023-04-25T05:51:27;5.03;;;4.37;;
3991;SDS011;2010;48.194;16.394;2023-04-25T05:54:27;6.17;;;4.83;;
3991;SDS011;2010;48.194;16.394;2023-04-25T05:57:07;5.50;;;4.20;;
3991;SDS011;2010;48.194;16.394;2023-04-25T05:59:43;5.80;;;4.37;;
3991;SDS011;2010;48.194;16.394;2023-04-25T06:02:14;6.03;;;4.07;;
3991;SDS011;2010;48.194;16.394;2023-04-25T06:04:57;5.30;;;3.83;;
3991;SDS011;2010;48.194;16.394;2023-04-25T06:07:31;4.57;;;3.40;;
3991;SDS011;2010;48.194;16.394;2023-04-25T06:10:08;3.67;;;3.37;;
3991;SDS011;2010;48.194;16.394;2023-04-25T06:12:39;4.63;;;3.20;;
3991;SDS011;2010;48.194;16.394;2023-04-25T06:15:11;3.70;;;3.33;;
3991;SDS011;2010;48.194;16.394;2023-04-25T06:17:55;3.40;;;3.10;;
3991;SDS011;2010;48.194;16.394;2023-04-25T06:20:27;3.93;;;3.60;;
3991;SDS011;2010;48.194;16.394;2023-04-25T06:22:59;6.20;;;4.00;;
3991;SDS011;2010;48.194;16.394;2023-04-25T06:26:05;4.67;;;3.70;;
3991;SDS011;2010;48.194;16.394;2023-04-25T06:28:38;4.53;;;4.10;;
3991;SDS011;2010;48.194;16.394;2023-04-25T06:31:09;4.70;;;3.50;;
3991;SDS011;2010;48.194;16.394;2023-04-25T06:33:40;3.27;;;3.07;;
3991;SDS011;2010;48.194;16.394;2023-04-25T06:36:16;3.53;;;3.23;;
3991;SDS011;2010;48.194;16.394;2023-04-25T06:38:55;4.17;;;3.10;;
3991;SDS011;2010;48.194;16.394;2023-04-25T06:41:27;4.63;;;3.30;;
3991;SDS011;2010;48.194;16.394;2023-04-25T06:44:08;4.43;;;3.50;;
3991;SDS011;2010;48.194;16.394;2023-04-25T06:46:44;3.80;;;3.03;;
3991;SDS011;2010;48.194;16.394;2023-04-25T06:49:21;3.53;;;3.23;;
3991;SDS011;2010;48.194;16.394;2023-04-25T06:51:53;3.27;;;2.97;;
3991;SDS011;2010;48.194;16.394;2023-04-25T06:54:25;4.23;;;3.20;;
3991;SDS011;2010;48.194;16.394;2023-04-25T06:57:25;3.53;;;3.23;;
3991;SDS011;2010;48.194;16.394;2023-04-25T07:00:20;3.87;;;2.97;;
3991;SDS011;2010;48.194;16.394;2023-04-25T07:02:52;3.70;;;2.80;;
3991;SDS011;2010;48.194;16.394;2023-04-25T07:05:24;3.27;;;3.00;;
3991;SDS011;2010;48.194;16.394;2023-04-25T07:07:53;6.13;;;3.10;;
3991;SDS011;2010;48.194;16.394;2023-04-25T07:10:26;5.60;;;3.30;;
3991;SDS011;2010;48.194;16.394;2023-04-25T07:12:57;2.70;;;2.50;;
3991;SDS011;2010;48.194;16.394;2023-04-25T07:15:27;4.20;;;3.90;;
3991;SDS011;2010;48.194;16.394;2023-04-25T07:18:00;3.30;;;3.00;;
3991;SDS011;2010;48.194;16.394;2023-04-25T07:20:36;4.43;;;3.17;;
3991;SDS011;2010;48.194;16.394;2023-04-25T07:23:10;5.00;;;3.93;;
3991;SDS011;2010;48.194;16.394;2023-04-25T07:25:44;5.27;;;3.67;;
3991;SDS011;2010;48.194;16.394;2023-04-25T07:28:18;4.60;;;3.47;;
3991;SDS011;2010;48.194;16.394;2023-04-25T07:30:48;3.47;;;3.13;;
3991;SDS011;2010;48.194;16.394;2023-04-25T07:33:20;3.40;;;3.20;;
3991;SDS011;2010;48.194;16.394;2023-04-25T07:35:50;7.53;;;3.40;;
3991;SDS011;2010;48.194;16.394;2023-04-25T07:38:22;2.93;;;2.73;;
3991;SDS011;2010;48.194;16.394;2023-04-25T07:40:54;3.33;;;3.10;;
3991;SDS011;2010;48.194;16.394;2023-04-25T07:43:31;3.77;;;3.17;;
3991;SDS011;2010;48.194;16.394;2023-04-25T07:46:04;3.30;;;3.10;;
3991;SDS011;2010;48.194;16.394;2023-04-25T07:48:36;3.20;;;2.90;;
3991;SDS011;2010;48.194;16.394;2023-04-25T07:51:17;3.20;;;3.00;;
3991;SDS011;2010;48.194;16.394;2023-04-25T07:53:49;4.00;;;3.10;;
3991;SDS011;2010;48.194;16.394;2023-04-25T07:56:25;5.80;;;3.73;;
3991;SDS011;2010;48.194;16.394;2023-04-25T07:59:15;5.20;;;3.50;;
3991;SDS011;2010;48.194;16.394;2023-04-25T08:01:45;3.40;;;3.10;;
3991;SDS011;2010;48.194;16.394;2023-04-25T08:04:19;4.63;;;3.67;;
3991;SDS011;2010;48.194;16.394;2023-04-25T08:06:54;3.80;;;3.53;;
3991;SDS011;2010;48.194;16.394;2023-04-25T08:09:30;3.53;;;3.23;;
3991;SDS011;2010;48.194;16.394;2023-04-25T08:12:19;3.73;;;3.40;;
3991;SDS011;2010;48.194;16.394;2023-04-25T08:14:58;3.50;;;3.30;;
3991;SDS011;2010;48.194;16.394;2023-04-25T08:17:32;3.10;;;2.90;;
3991;SDS011;2010;48.194;16.394;2023-04-25T08:20:13;3.67;;;3.37;;
3991;SDS011;2010;48.194;16.394;2023-04-25T08:22:45;6.80;;;3.40;;
3991;SDS011;2010;48.194;16.394;2023-04-25T08:25:32;3.77;;;3.47;;
3991;SDS011;2010;48.194;16.394;2023-04-25T08:28:04;3.83;;;3.60;;
3991;SDS011;2010;48.194;16.394;2023-04-25T08:30:38;3.07;;;2.87;;
3991;SDS011;2010;48.194;16.394;2023-04-25T08:33:14;4.33;;;3.60;;
3991;SDS011;2010;48.194;16.394;2023-04-25T08:36:03;2.70;;;2.50;;
3991;SDS011;2010;48.194;16.394;2023-04-25T08:39:01;3.00;;;2.80;;
3991;SDS011;2010;48.194;16.394;2023-04-25T08:41:39;3.07;;;2.87;;
3991;SDS011;2010;48.194;16.394;2023-04-25T08:44:16;3.17;;;2.90;;
3991;SDS011;2010;48.194;16.394;2023-04-25T08:46:51;4.10;;;3.30;;
3991;SDS011;2010;48.194;16.394;2023-04-25T08:49:29;3.50;;;3.00;;
3991;SDS011;2010;48.194;16.394;2023-04-25T08:52:02;4.10;;;2.97;;
3991;SDS011;2010;48.194;16.394;2023-04-25T08:54:35;2.83;;;2.63;;
3991;SDS011;2010;48.194;16.394;2023-04-25T08:57:12;4.23;;;2.73;;
3991;SDS011;2010;48.194;16.394;2023-04-25T08:59:42;2.67;;;2.47;;
3991;SDS011;2010;48.194;16.394;2023-04-25T09:02:22;6.17;;;2.73;;
3991;SDS011;2010;48.194;16.394;2023-04-25T09:04:54;4.70;;;2.90;;
3991;SDS011;2010;48.194;16.394;2023-04-25T09:07:23;2.73;;;2.53;;
3991;SDS011;2010;48.194;16.394;2023-04-25T09:09:54;2.60;;;2.30;;
3991;SDS011;2010;48.194;16.394;2023-04-25T09:12:27;2.80;;;2.63;;
3991;SDS011;2010;48.194;16.394;2023-04-25T09:15:10;5.10;;;2.90;;
3991;SDS011;2010;48.194;16.394;2023-04-25T09:18:24;4.33;;;2.67;;
3991;SDS011;2010;48.194;16.394;2023-04-25T09:21:04;5.50;;;3.00;;
3991;SDS011;2010;48.194;16.394;2023-04-25T09:23:45;3.17;;;2.97;;
3991;SDS011;2010;48.194;16.394;2023-04-25T09:26:22;2.93;;;2.60;;
3991;SDS011;2010;48.194;16.394;2023-04-25T09:29:04;3.10;;;2.80;;
3991;SDS011;2010;48.194;16.394;2023-04-25T09:31:43;5.43;;;3.00;;
3991;SDS011;2010;48.194;16.394;2023-04-25T09:34:34;3.43;;;2.90;;
3991;SDS011;2010;48.194;16.394;2023-04-25T09:37:08;3.67;;;3.37;;
3991;SDS011;2010;48.194;16.394;2023-04-25T09:40:06;3.40;;;3.10;;
3991;SDS011;2010;48.194;16.394;2023-04-25T09:43:09;6.13;;;3.43;;
3991;SDS011;2010;48.194;16.394;2023-04-25T09:45:47;4.93;;;3.47;;
3991;SDS011;2010;48.194;16.394;2023-04-25T09:48:24;3.50;;;3.20;;
3991;SDS011;2010;48.194;16.394;2023-04-25T09:51:11;4.93;;;3.60;;
3991;SDS011;2010;48.194;16.394;2023-04-25T09:53:47;5.17;;;3.70;;
3991;SDS011;2010;48.194;16.394;2023-04-25T09:56:48;3.27;;;3.00;;
3991;SDS011;2010;48.194;16.394;2023-04-25T09:59:34;2.60;;;2.40;;
3991;SDS011;2010;48.194;16.394;2023-04-25T10:02:07;3.07;;;2.47;;
3991;SDS011;2010;48.194;16.394;2023-04-25T10:04:40;3.03;;;1.90;;
3991;SDS011;2010;48.194;16.394;2023-04-25T10:07:26;1.67;;;1.40;;
3991;SDS011;2010;48.194;16.394;2023-04-25T10:10:26;1.80;;;1.70;;
3991;SDS011;2010;48.194;16.394;2023-04-25T10:12:58;6.77;;;2.17;;
3991;SDS011;2010;48.194;16.394;2023-04-25T10:15:35;1.60;;;1.50;;
3991;SDS011;2010;48.194;16.394;2023-04-25T10:18:07;3.30;;;1.80;;
3991;SDS011;2010;48.194;16.394;2023-04-25T10:20:40;2.27;;;2.17;;
3991;SDS011;2010;48.194;16.394;2023-04-25T10:23:13;1.97;;;1.67;;
3991;SDS011;2010;48.194;16.394;2023-04-25T10:25:46;6.53;;;2.87;;
3991;SDS011;2010;48.194;16.394;2023-04-25T10:28:25;1.80;;;1.70;;
3991;SDS011;2010;48.194;16.394;2023-04-25T10:31:04;2.10;;;1.57;;
3991;SDS011;2010;48.194;16.394;2023-04-25T10:33:37;1.50;;;1.40;;
3991;SDS011;2010;48.194;16.394;2023-04-25T10:36:10;1.40;;;1.40;;
3991;SDS011;2010;48.194;16.394;2023-04-25T10:38:43;1.60;;;1.50;;
3991;SDS011;2010;48.194;16.394;2023-04-25T10:41:14;1.47;;;1.00;;
3991;SDS011;2010;48.194;16.394;2023-04-25T10:43:44;3.67;;;1.87;;
3991;SDS011;2010;48.194;16.394;2023-04-25T10:46:19;1.60;;;1.10;;
3991;SDS011;2010;48.194;16.394;2023-04-25T10:49:00;1.50;;;1.40;;
3991;SDS011;2010;48.194;16.394;2023-04-25T10:51:43;2.53;;;1.27;;
3991;SDS011;2010;48.194;16.394;2023-04-25T10:54:36;1.47;;;1.37;;
3991;SDS011;2010;48.194;16.394;2023-04-25T10:57:27;1.33;;;1.23;;
3991;SDS011;2010;48.194;16.394;2023-04-25T11:00:08;3.07;;;1.30;;
3991;SDS011;2010;48.194;16.394;2023-04-25T11:02:57;1.43;;;1.33;;
3991;SDS011;2010;48.194;16.394;2023-04-25T11:05:29;1.37;;;1.27;;
3991;SDS011;2010;48.194;16.394;2023-04-25T11:08:14;4.13;;;2.13;;
3991;SDS011;2010;48.194;16.394;2023-04-25T11:11:19;3.30;;;1.63;;
3991;SDS011;2010;48.194;16.394;2023-04-25T11:13:52;1.73;;;1.63;;
3991;SDS011;2010;48.194;16.394;2023-04-25T11:16:25;2.13;;;1.90;;
3991;SDS011;2010;48.194;16.394;2023-04-25T11:18:57;2.00;;;1.40;;
3991;SDS011;2010;48.194;16.394;2023-04-25T11:21:30;3.40;;;1.83;;
3991;SDS011;2010;48.194;16.394;2023-04-25T11:24:07;3.23;;;2.57;;
3991;SDS011;2010;48.194;16.394;2023-04-25T11:26:44;2.80;;;2.10;;
3991;SDS011;2010;48.194;16.394;2023-04-25T11:29:17;4.00;;;1.73;;
3991;SDS011;2010;48.194;16.394;2023-04-25T11:31:58;2.70;;;2.20;;
3991;SDS011;2010;48.194;16.394;2023-04-25T11:34:32;2.33;;;2.13;;
3991;SDS011;2010;48.194;16.394;2023-04-25T11:37:03;4.40;;;1.90;;
3991;SDS011;2010;48.194;16.394;2023-04-25T11:39:34;8.97;;;2.33;;
3991;SDS011;2010;48.194;16.394;2023-04-25T11:42:21;3.50;;;1.90;;
3991;SDS011;2010;48.194;16.394;2023-04-25T11:44:53;2.80;;;1.93;;
3991;SDS011;2010;48.194;16.394;2023-04-25T11:47:30;2.10;;;1.90;;
3991;SDS011;2010;48.194;16.394;2023-04-25T11:50:10;1.90;;;1.80;;
3991;SDS011;2010;48.194;16.394;2023-04-25T11:52:42;7.13;;;1.90;;
3991;SDS011;2010;48.194;16.394;2023-04-25T11:55:20;2.03;;;1.83;;
3991;SDS011;2010;48.194;16.394;2023-04-25T11:57:59;1.60;;;1.50;;
3991;SDS011;2010;48.194;16.394;2023-04-25T12:00:28;1.83;;;1.73;;
3991;SDS011;2010;48.194;16.394;2023-04-25T12:03:00;2.80;;;2.00;;
3991;SDS011;2010;48.194;16.394;2023-04-25T12:05:35;2.40;;;1.97;;
3991;SDS011;2010;48.194;16.394;2023-04-25T12:08:12;2.57;;;1.90;;
3991;SDS011;2010;48.194;16.394;2023-04-25T12:10:49;2.30;;;2.10;;
3991;SDS011;2010;48.194;16.394;2023-04-25T12:13:21;1.77;;;1.70;;
3991;SDS011;2010;48.194;16.394;2023-04-25T12:15:56;4.77;;;1.73;;
3991;SDS011;2010;48.194;16.394;2023-04-25T12:18:28;3.73;;;1.43;;
3991;SDS011;2010;48.194;16.394;2023-04-25T12:21:10;3.20;;;2.13;;
3991;SDS011;2010;48.194;16.394;2023-04-25T12:23:45;1.90;;;1.80;;
3991;SDS011;2010;48.194;16.394;2023-04-25T12:26:19;1.90;;;1.60;;
3991;SDS011;2010;48.194;16.394;2023-04-25T12:28:59;3.90;;;1.30;;
3991;SDS011;2010;48.194;16.394;2023-04-25T12:31:28;2.17;;;1.50;;
3991;SDS011;2010;48.194;16.394;2023-04-25T12:34:06;2.20;;;1.30;;
3991;SDS011;2010;48.194;16.394;2023-04-25T12:36:38;2.80;;;1.13;;
3991;SDS011;2010;48.194;16.394;2023-04-25T12:39:14;1.47;;;1.37;;
3991;SDS011;2010;48.194;16.394;2023-04-25T12:41:45;3.07;;;1.33;;
3991;SDS011;2010;48.194;16.394;2023-04-25T12:44:29;5.50;;;1.40;;
3991;SDS011;2010;48.194;16.394;2023-04-25T12:47:01;4.00;;;1.53;;
3991;SDS011;2010;48.194;16.394;2023-04-25T12:49:32;1.70;;;1.13;;
3991;SDS011;2010;48.194;16.394;2023-04-25T12:52:04;2.50;;;1.30;;
3991;SDS011;2010;48.194;16.394;2023-04-25T12:54:34;3.90;;;1.40;;
3991;SDS011;2010;48.194;16.394;2023-04-25T12:57:10;1.20;;;1.10;;
3991;SDS011;2010;48.194;16.394;2023-04-25T12:59:58;1.37;;;1.20;;
3991;SDS011;2010;48.194;16.394;2023-04-25T13:02:30;1.40;;;1.30;;
3991;SDS011;2010;48.194;16.394;2023-04-25T13:05:02;1.60;;;1.50;;
3991;SDS011;2010;48.194;16.394;2023-04-25T13:07:32;1.50;;;1.40;;
3991;SDS011;2010;48.194;16.394;2023-04-25T13:10:04;1.33;;;1.10;;
3991;SDS011;2010;48.194;16.394;2023-04-25T13:12:33;2.33;;;1.40;;
3991;SDS011;2010;48.194;16.394;2023-04-25T13:15:05;3.03;;;1.20;;
3991;SDS011;2010;48.194;16.394;2023-04-25T13:17:35;1.33;;;1.00;;
3991;SDS011;2010;48.194;16.394;2023-04-25T13:20:08;1.87;;;1.10;;
3991;SDS011;2010;48.194;16.394;2023-04-25T13:22:37;0.87;;;0.83;;
3991;SDS011;2010;48.194;16.394;2023-04-25T13:25:08;1.07;;;1.07;;
3991;SDS011;2010;48.194;16.394;2023-04-25T13:27:37;2.10;;;1.20;;
3991;SDS011;2010;48.194;16.394;2023-04-25T13:30:14;1.30;;;1.27;;
3991;SDS011;2010;48.194;16.394;2023-04-25T13:32:53;3.57;;;1.30;;
3991;SDS011;2010;48.194;16.394;2023-04-25T13:35:24;1.13;;;1.00;;
3991;SDS011;2010;48.194;16.394;2023-04-25T13:37:56;1.10;;;1.10;;
3991;SDS011;2010;48.194;16.394;2023-04-25T13:40:25;1.10;;;0.73;;
3991;SDS011;2010;48.194;16.394;2023-04-25T13:42:57;1.27;;;1.17;;
3991;SDS011;2010;48.194;16.394;2023-04-25T13:45:32;1.10;;;1.00;;
3991;SDS011;2010;48.194;16.394;2023-04-25T13:48:00;1.13;;;1.10;;
3991;SDS011;2010;48.194;16.394;2023-04-25T13:50:35;0.93;;;0.93;;
3991;SDS011;2010;48.194;16.394;2023-04-25T13:53:07;0.87;;;0.87;;
3991;SDS011;2010;48.194;16.394;2023-04-25T13:55:37;1.13;;;0.80;;
3991;SDS011;2010;48.194;16.394;2023-04-25T13:58:10;2.10;;;1.00;;
3991;SDS011;2010;48.194;16.394;2023-04-25T14:00:45;1.47;;;1.10;;
3991;SDS011;2010;48.194;16.394;2023-04-25T14:03:14;1.40;;;1.30;;
3991;SDS011;2010;48.194;16.394;2023-04-25T14:05:42;2.43;;;1.83;;
3991;SDS011;2010;48.194;16.394;2023-04-25T14:08:14;1.50;;;1.40;;
3991;SDS011;2010;48.194;16.394;2023-04-25T14:10:42;2.90;;;1.40;;
3991;SDS011;2010;48.194;16.394;2023-04-25T14:13:12;2.00;;;1.00;;
3991;SDS011;2010;48.194;16.394;2023-04-25T14:15:40;1.47;;;0.80;;
3991;SDS011;2010;48.194;16.394;2023-04-25T14:18:13;1.00;;;1.00;;
3991;SDS011;2010;48.194;16.394;2023-04-25T14:20:42;5.80;;;1.07;;
3991;SDS011;2010;48.194;16.394;2023-04-25T14:23:13;0.67;;;0.67;;
3991;SDS011;2010;48.194;16.394;2023-04-25T14:25:41;2.40;;;1.13;;
3991;SDS011;2010;48.194;16.394;2023-04-25T14:28:13;0.77;;;0.77;;
3991;SDS011;2010;48.194;16.394;2023-04-25T14:30:55;1.40;;;0.80;;
3991;SDS011;2010;48.194;16.394;2023-04-25T14:33:34;1.07;;;0.90;;
3991;SDS011;2010;48.194;16.394;2023-04-25T14:36:04;1.03;;;0.80;;
3991;SDS011;2010;48.194;16.394;2023-04-25T14:38:37;1.13;;;0.90;;
3991;SDS011;2010;48.194;16.394;2023-04-25T14:41:10;1.47;;;1.37;;
3991;SDS011;2010;48.194;16.394;2023-04-25T14:43:40;1.53;;;1.07;;
3991;SDS011;2010;48.194;16.394;2023-04-25T14:46:13;1.43;;;1.10;;
3991;SDS011;2010;48.194;16.394;2023-04-25T14:48:44;2.77;;;1.07;;
3991;SDS011;2010;48.194;16.394;2023-04-25T14:51:18;3.33;;;1.20;;
3991;SDS011;2010;48.194;16.394;2023-04-25T14:53:51;2.50;;;1.30;;
3991;SDS011;2010;48.194;16.394;2023-04-25T14:56:21;1.30;;;1.20;;
3991;SDS011;2010;48.194;16.394;2023-04-25T14:58:52;1.33;;;0.97;;
3991;SDS011;2010;48.194;16.394;2023-04-25T15:01:24;0.77;;;0.77;;
3991;SDS011;2010;48.194;16.394;2023-04-25T15:03:55;3.17;;;1.20;;
3991;SDS011;2010;48.194;16.394;2023-04-25T15:06:24;2.50;;;1.60;;
3991;SDS011;2010;48.194;16.394;2023-04-25T15:08:55;2.07;;;1.10;;
3991;SDS011;2010;48.194;16.394;2023-04-25T15:11:24;2.00;;;1.20;;
3991;SDS011;2010;48.194;16.394;2023-04-25T15:13:55;1.60;;;1.50;;
3991;SDS011;2010;48.194;16.394;2023-04-25T15:16:40;2.47;;;1.37;;
3991;SDS011;2010;48.194;16.394;2023-04-25T15:19:11;1.80;;;1.70;;
3991;SDS011;2010;48.194;16.394;2023-04-25T15:21:46;1.90;;;1.80;;
3991;SDS011;2010;48.194;16.394;2023-04-25T15:24:18;2.00;;;1.90;;
3991;SDS011;2010;48.194;16.394;2023-04-25T15:26:50;2.40;;;2.20;;
3991;SDS011;2010;48.194;16.394;2023-04-25T15:29:19;3.30;;;1.57;;
3991;SDS011;2010;48.194;16.394;2023-04-25T15:31:51;1.70;;;1.60;;
3991;SDS011;2010;48.194;16.394;2023-04-25T15:34:21;1.10;;;1.10;;
3991;SDS011;2010;48.194;16.394;2023-04-25T15:36:51;1.60;;;1.50;;
3991;SDS011;2010;48.194;16.394;2023-04-25T15:39:25;1.80;;;1.60;;
3991;SDS011;2010;48.194;16.394;2023-04-25T15:41:54;1.93;;;1.57;;
3991;SDS011;2010;48.194;16.394;2023-04-25T15:44:26;3.27;;;0.97;;
3991;SDS011;2010;48.194;16.394;2023-04-25T15:46:59;1.20;;;0.90;;
3991;SDS011;2010;48.194;16.394;2023-04-25T15:49:31;1.73;;;0.93;;
3991;SDS011;2010;48.194;16.394;2023-04-25T15:52:04;1.53;;;1.00;;
3991;SDS011;2010;48.194;16.394;2023-04-25T15:54:35;1.27;;;1.17;;
3991;SDS011;2010;48.194;16.394;2023-04-25T15:57:08;0.93;;;0.93;;